BEL8CL EDDH-EBBR
Flight info
| Callsign | BEL8CL |
|---|---|
| Flight time | N/A |
| Altitude | 34000 |
| Route | WSN5G WSN DCT EEL N872 LILSI Z310 WOODY |
| Aircraft | A320/M-DE3FGHIJ1LORVWY/H |
Departure
| Time | 2026-04-26 07:04 |
|---|---|
| Airport | Hamburg Helmut Schmidt Airport (EDDH) |
Arrival
| Time | N/A |
|---|---|
| Airport | Brussels Airport (EBBR) |
| Time | Latitude | Longitude | Altitude | Speed | Heading |
|---|---|---|---|---|---|
| 2026-04-26 06:38 | 53.63411 | 10.00343 | 62 ft | 0 kts | 86° |
| 2026-04-26 06:52 | 53.63411 | 10.00336 | 62 ft | 2 kts | 86° |
| 2026-04-26 06:52 | 53.63409 | 10.00310 | 62 ft | 2 kts | 90° |
| 2026-04-26 06:53 | 53.63411 | 10.00285 | 62 ft | 2 kts | 104° |
| 2026-04-26 06:53 | 53.63416 | 10.00261 | 62 ft | 2 kts | 116° |
| 2026-04-26 06:53 | 53.63424 | 10.00240 | 62 ft | 2 kts | 128° |
| 2026-04-26 06:53 | 53.63435 | 10.00221 | 62 ft | 2 kts | 140° |
| 2026-04-26 06:54 | 53.63447 | 10.00207 | 62 ft | 2 kts | 152° |
| 2026-04-26 06:54 | 53.63461 | 10.00197 | 62 ft | 2 kts | 164° |
| 2026-04-26 06:54 | 53.63469 | 10.00194 | 62 ft | 1 kts | 171° |
| 2026-04-26 06:54 | 53.63473 | 10.00193 | 62 ft | 0 kts | 172° |
| 2026-04-26 06:56 | 53.63472 | 10.00193 | 62 ft | 0 kts | 172° |
| 2026-04-26 06:56 | 53.63453 | 10.00199 | 62 ft | 5 kts | 168° |
| 2026-04-26 06:57 | 53.63412 | 10.00213 | 62 ft | 6 kts | 170° |
| 2026-04-26 06:57 | 53.63361 | 10.00228 | 62 ft | 7 kts | 170° |
| 2026-04-26 06:57 | 53.63303 | 10.00243 | 62 ft | 9 kts | 173° |
| 2026-04-26 06:57 | 53.63237 | 10.00253 | 62 ft | 10 kts | 175° |
| 2026-04-26 06:58 | 53.63164 | 10.00258 | 62 ft | 11 kts | 178° |
| 2026-04-26 06:58 | 53.63084 | 10.00266 | 62 ft | 12 kts | 183° |
| 2026-04-26 06:58 | 53.63012 | 10.00227 | 62 ft | 7 kts | 208° |
| 2026-04-26 06:58 | 53.62962 | 10.00175 | 62 ft | 9 kts | 213° |
| 2026-04-26 06:59 | 53.62907 | 10.00112 | 62 ft | 10 kts | 219° |
| 2026-04-26 06:59 | 53.62865 | 10.00020 | 62 ft | 8 kts | 239° |
| 2026-04-26 06:59 | 53.62848 | 9.99970 | 62 ft | 0 kts | 242° |
| 2026-04-26 07:00 | 53.62843 | 9.99954 | 62 ft | 2 kts | 242° |
| 2026-04-26 07:01 | 53.62829 | 9.99908 | 62 ft | 0 kts | 243° |
| 2026-04-26 07:01 | 53.62825 | 9.99898 | 62 ft | 2 kts | 243° |
| 2026-04-26 07:02 | 53.62815 | 9.99862 | 62 ft | 4 kts | 243° |
| 2026-04-26 07:02 | 53.62805 | 9.99810 | 62 ft | 4 kts | 288° |
| 2026-04-26 07:02 | 53.62822 | 9.99783 | 62 ft | 0 kts | 330° |
| 2026-04-26 07:03 | 53.62845 | 9.99762 | 62 ft | 21 kts | 332° |
| 2026-04-26 07:03 | 53.63216 | 9.99439 | 62 ft | 97 kts | 332° |
| 2026-04-26 07:03 | 53.64022 | 9.98745 | 96 ft | 154 kts | 333° |
| 2026-04-26 07:04 | 53.64998 | 9.97920 | 635 ft | 161 kts | 333° |
| 2026-04-26 07:04 | 53.65985 | 9.97071 | 1310 ft | 164 kts | 332° |
| 2026-04-26 07:04 | 53.67028 | 9.96142 | 1813 ft | 180 kts | 331° |
| 2026-04-26 07:04 | 53.68178 | 9.95097 | 2377 ft | 195 kts | 333° |
| 2026-04-26 07:05 | 53.69409 | 9.94014 | 2989 ft | 208 kts | 335° |
| 2026-04-26 07:05 | 53.70660 | 9.92844 | 3859 ft | 211 kts | 320° |
| 2026-04-26 07:05 | 53.71433 | 9.90735 | 4661 ft | 222 kts | 285° |
| 2026-04-26 07:05 | 53.71361 | 9.88092 | 5299 ft | 242 kts | 258° |
| 2026-04-26 07:06 | 53.70799 | 9.85293 | 5840 ft | 260 kts | 254° |
| 2026-04-26 07:06 | 53.70159 | 9.82362 | 6513 ft | 271 kts | 254° |
| 2026-04-26 07:06 | 53.69529 | 9.79401 | 7372 ft | 273 kts | 256° |
| 2026-04-26 07:06 | 53.68908 | 9.76377 | 8235 ft | 274 kts | 257° |
| 2026-04-26 07:07 | 53.68299 | 9.73324 | 9058 ft | 277 kts | 258° |
| 2026-04-26 07:07 | 53.67696 | 9.70273 | 9890 ft | 279 kts | 258° |
| 2026-04-26 07:07 | 53.67083 | 9.67183 | 10745 ft | 279 kts | 259° |
| 2026-04-26 07:07 | 53.66466 | 9.64032 | 11266 ft | 292 kts | 260° |
| 2026-04-26 07:08 | 53.65797 | 9.60697 | 11760 ft | 306 kts | 257° |
| 2026-04-26 07:08 | 53.64897 | 9.57408 | 12516 ft | 315 kts | 250° |
| 2026-04-26 07:08 | 53.63728 | 9.54268 | 13270 ft | 322 kts | 244° |
| 2026-04-26 07:08 | 53.62425 | 9.51192 | 13960 ft | 326 kts | 243° |
| 2026-04-26 07:09 | 53.61090 | 9.48107 | 14624 ft | 330 kts | 243° |
| 2026-04-26 07:09 | 53.59744 | 9.45003 | 15281 ft | 333 kts | 243° |
| 2026-04-26 07:09 | 53.58373 | 9.41832 | 15934 ft | 335 kts | 244° |
| 2026-04-26 07:09 | 53.57001 | 9.38652 | 16555 ft | 338 kts | 244° |
| 2026-04-26 07:10 | 53.52795 | 9.28899 | 18319 ft | 349 kts | 243° |
| 2026-04-26 07:11 | 53.49927 | 9.22257 | 19431 ft | 355 kts | 242° |
| 2026-04-26 07:11 | 53.48472 | 9.18899 | 19965 ft | 358 kts | 242° |
| 2026-04-26 07:11 | 53.47000 | 9.15510 | 20479 ft | 362 kts | 242° |
| 2026-04-26 07:11 | 53.45520 | 9.12106 | 20979 ft | 365 kts | 242° |
| 2026-04-26 07:12 | 53.44019 | 9.08659 | 21483 ft | 368 kts | 242° |
| 2026-04-26 07:12 | 53.42497 | 9.05171 | 21978 ft | 371 kts | 241° |
| 2026-04-26 07:12 | 53.40956 | 9.01647 | 22472 ft | 374 kts | 241° |
| 2026-04-26 07:12 | 53.39414 | 8.98125 | 22959 ft | 376 kts | 241° |
| 2026-04-26 07:13 | 53.37872 | 8.94608 | 23419 ft | 379 kts | 241° |
| 2026-04-26 07:13 | 53.36317 | 8.91009 | 23872 ft | 380 kts | 243° |
| 2026-04-26 07:13 | 53.34951 | 8.87271 | 24314 ft | 378 kts | 249° |
| 2026-04-26 07:13 | 53.33813 | 8.83278 | 24749 ft | 376 kts | 255° |
| 2026-04-26 07:14 | 53.32887 | 8.79245 | 25168 ft | 377 kts | 256° |
| 2026-04-26 07:14 | 53.31977 | 8.75085 | 25590 ft | 379 kts | 256° |
| 2026-04-26 07:14 | 53.31074 | 8.70955 | 25991 ft | 382 kts | 256° |
| 2026-04-26 07:14 | 53.30152 | 8.66770 | 26381 ft | 385 kts | 256° |
| 2026-04-26 07:15 | 53.29219 | 8.62528 | 26765 ft | 387 kts | 256° |
| 2026-04-26 07:15 | 53.28294 | 8.58293 | 27142 ft | 390 kts | 256° |
| 2026-04-26 07:15 | 53.27368 | 8.54061 | 27512 ft | 392 kts | 256° |
| 2026-04-26 07:15 | 53.26448 | 8.49789 | 27872 ft | 393 kts | 257° |
| 2026-04-26 07:16 | 53.25613 | 8.45428 | 28225 ft | 395 kts | 258° |
| 2026-04-26 07:16 | 53.24790 | 8.41048 | 28559 ft | 397 kts | 258° |
| 2026-04-26 07:16 | 53.23963 | 8.36644 | 28863 ft | 400 kts | 258° |
| 2026-04-26 07:16 | 53.23132 | 8.32245 | 29171 ft | 403 kts | 257° |
| 2026-04-26 07:17 | 53.22277 | 8.27735 | 29486 ft | 405 kts | 257° |
| 2026-04-26 07:17 | 53.21432 | 8.23290 | 29791 ft | 407 kts | 257° |
| 2026-04-26 07:17 | 53.20563 | 8.18728 | 30092 ft | 410 kts | 257° |
| 2026-04-26 07:17 | 53.19707 | 8.14249 | 30381 ft | 412 kts | 257° |
| 2026-04-26 07:18 | 53.18836 | 8.09683 | 30665 ft | 414 kts | 257° |
| 2026-04-26 07:18 | 53.17970 | 8.05082 | 30939 ft | 416 kts | 257° |
| 2026-04-26 07:18 | 53.17107 | 8.00487 | 31207 ft | 418 kts | 257° |
| 2026-04-26 07:18 | 53.16246 | 7.95896 | 31454 ft | 420 kts | 257° |
| 2026-04-26 07:19 | 53.15359 | 7.91201 | 31682 ft | 423 kts | 256° |
| 2026-04-26 07:19 | 53.14468 | 7.86520 | 31916 ft | 426 kts | 256° |
| 2026-04-26 07:19 | 53.13576 | 7.81857 | 32150 ft | 428 kts | 256° |
| 2026-04-26 07:19 | 53.12666 | 7.77097 | 32385 ft | 430 kts | 256° |
| 2026-04-26 07:20 | 53.11762 | 7.72391 | 32608 ft | 431 kts | 256° |
| 2026-04-26 07:20 | 53.10843 | 7.67610 | 32824 ft | 433 kts | 256° |
| 2026-04-26 07:20 | 53.09920 | 7.62811 | 33031 ft | 435 kts | 256° |
| 2026-04-26 07:20 | 53.08998 | 7.58031 | 33224 ft | 437 kts | 256° |
| 2026-04-26 07:21 | 53.08061 | 7.53193 | 33419 ft | 439 kts | 256° |
| 2026-04-26 07:21 | 53.07132 | 7.48413 | 33649 ft | 439 kts | 256° |
| 2026-04-26 07:21 | 53.06185 | 7.43552 | 33869 ft | 440 kts | 256° |
| 2026-04-26 07:21 | 53.05251 | 7.38775 | 34056 ft | 441 kts | 256° |
| 2026-04-26 07:22 | 53.04297 | 7.33904 | 34243 ft | 442 kts | 255° |
| 2026-04-26 07:22 | 53.03348 | 7.29075 | 34344 ft | 444 kts | 255° |
| 2026-04-26 07:22 | 53.02391 | 7.24215 | 34347 ft | 444 kts | 255° |
| 2026-04-26 07:23 | 53.00440 | 7.14446 | 34350 ft | 444 kts | 254° |
| 2026-04-26 07:23 | 52.97719 | 7.05228 | 34349 ft | 451 kts | 237° |
| 2026-04-26 07:24 | 52.93634 | 6.97272 | 34352 ft | 454 kts | 230° |
| 2026-04-26 07:24 | 52.89389 | 6.89581 | 34350 ft | 453 kts | 230° |
| 2026-04-26 07:25 | 52.85189 | 6.81936 | 34351 ft | 453 kts | 230° |
| 2026-04-26 07:25 | 52.80990 | 6.74276 | 34351 ft | 453 kts | 230° |
| 2026-04-26 07:26 | 52.76762 | 6.66578 | 34351 ft | 453 kts | 230° |
| 2026-04-26 07:26 | 52.72549 | 6.58936 | 34351 ft | 452 kts | 230° |
| 2026-04-26 07:27 | 52.68150 | 6.51580 | 34350 ft | 453 kts | 227° |
| 2026-04-26 07:27 | 52.63750 | 6.44189 | 34351 ft | 453 kts | 228° |
| 2026-04-26 07:28 | 52.59417 | 6.36749 | 34351 ft | 452 kts | 229° |
| 2026-04-26 07:28 | 52.55141 | 6.29295 | 34351 ft | 452 kts | 227° |
| 2026-04-26 07:29 | 52.50826 | 6.21793 | 34351 ft | 452 kts | 227° |
| 2026-04-26 07:29 | 52.46533 | 6.14354 | 34350 ft | 452 kts | 227° |
| 2026-04-26 07:30 | 52.42229 | 6.06917 | 34351 ft | 451 kts | 227° |
| 2026-04-26 07:30 | 52.37908 | 5.99474 | 34351 ft | 451 kts | 227° |
| 2026-04-26 07:31 | 52.33620 | 5.92112 | 34351 ft | 451 kts | 227° |
| 2026-04-26 07:31 | 52.29300 | 5.84724 | 34351 ft | 451 kts | 227° |
| 2026-04-26 07:32 | 52.24970 | 5.77339 | 34351 ft | 451 kts | 227° |
| 2026-04-26 07:32 | 52.20650 | 5.69989 | 34351 ft | 451 kts | 227° |
| 2026-04-26 07:33 | 52.16331 | 5.62664 | 34061 ft | 450 kts | 227° |
| 2026-04-26 07:33 | 52.14183 | 5.59029 | 33813 ft | 448 kts | 227° |
| 2026-04-26 07:33 | 52.12026 | 5.55384 | 33510 ft | 446 kts | 227° |
| 2026-04-26 07:33 | 52.09900 | 5.51797 | 32998 ft | 444 kts | 227° |
| 2026-04-26 07:34 | 52.07751 | 5.48177 | 32330 ft | 444 kts | 227° |
| 2026-04-26 07:34 | 52.05636 | 5.44621 | 31837 ft | 439 kts | 227° |
| 2026-04-26 07:34 | 52.03523 | 5.41072 | 31358 ft | 435 kts | 227° |
| 2026-04-26 07:34 | 52.01462 | 5.37615 | 30891 ft | 430 kts | 228° |
| 2026-04-26 07:35 | 51.99387 | 5.34139 | 30421 ft | 426 kts | 227° |
| 2026-04-26 07:35 | 51.97353 | 5.30734 | 29979 ft | 421 kts | 227° |
| 2026-04-26 07:35 | 51.95320 | 5.27335 | 29542 ft | 416 kts | 227° |
| 2026-04-26 07:35 | 51.93317 | 5.23994 | 29099 ft | 411 kts | 227° |
| 2026-04-26 07:36 | 51.91346 | 5.20710 | 28649 ft | 407 kts | 227° |
| 2026-04-26 07:36 | 51.89392 | 5.17457 | 28196 ft | 403 kts | 227° |
| 2026-04-26 07:36 | 51.87488 | 5.14293 | 27751 ft | 399 kts | 227° |
| 2026-04-26 07:36 | 51.85568 | 5.11106 | 27304 ft | 396 kts | 227° |
| 2026-04-26 07:37 | 51.83667 | 5.07953 | 26854 ft | 392 kts | 227° |
| 2026-04-26 07:37 | 51.81799 | 5.04857 | 26411 ft | 389 kts | 227° |
| 2026-04-26 07:37 | 51.79911 | 5.01738 | 25960 ft | 385 kts | 227° |
| 2026-04-26 07:37 | 51.78033 | 4.98641 | 25506 ft | 382 kts | 227° |
| 2026-04-26 07:38 | 51.76203 | 4.95623 | 25060 ft | 379 kts | 227° |
| 2026-04-26 07:38 | 51.74347 | 4.92568 | 24606 ft | 376 kts | 227° |
| 2026-04-26 07:38 | 51.72538 | 4.89594 | 24160 ft | 374 kts | 227° |
| 2026-04-26 07:38 | 51.70733 | 4.86630 | 23711 ft | 371 kts | 227° |
| 2026-04-26 07:39 | 51.68927 | 4.83668 | 23259 ft | 369 kts | 227° |
| 2026-04-26 07:39 | 51.67162 | 4.80775 | 22814 ft | 367 kts | 227° |
| 2026-04-26 07:39 | 51.65379 | 4.77859 | 22365 ft | 364 kts | 227° |
| 2026-04-26 07:39 | 51.63611 | 4.74969 | 21920 ft | 362 kts | 227° |
| 2026-04-26 07:40 | 51.61843 | 4.72082 | 21471 ft | 361 kts | 227° |
| 2026-04-26 07:40 | 51.60117 | 4.69224 | 21028 ft | 359 kts | 228° |
| 2026-04-26 07:40 | 51.58382 | 4.66311 | 20579 ft | 357 kts | 228° |
| 2026-04-26 07:40 | 51.56688 | 4.63464 | 20138 ft | 355 kts | 228° |
| 2026-04-26 07:41 | 51.54995 | 4.60626 | 19695 ft | 354 kts | 228° |
| 2026-04-26 07:41 | 51.53280 | 4.57758 | 19249 ft | 352 kts | 228° |
| 2026-04-26 07:41 | 51.51604 | 4.54961 | 18812 ft | 350 kts | 228° |
| 2026-04-26 07:41 | 51.49926 | 4.52163 | 18394 ft | 348 kts | 228° |
| 2026-04-26 07:42 | 51.48240 | 4.49358 | 17960 ft | 346 kts | 228° |
| 2026-04-26 07:42 | 51.46591 | 4.46615 | 17530 ft | 345 kts | 228° |
| 2026-04-26 07:42 | 51.44929 | 4.43857 | 17092 ft | 344 kts | 228° |
| 2026-04-26 07:42 | 51.43258 | 4.41087 | 16642 ft | 343 kts | 228° |
| 2026-04-26 07:43 | 51.41590 | 4.38437 | 16199 ft | 343 kts | 224° |
| 2026-04-26 07:43 | 51.39682 | 4.36122 | 15753 ft | 343 kts | 215° |
| 2026-04-26 07:43 | 51.37590 | 4.34278 | 15305 ft | 344 kts | 208° |
| 2026-04-26 07:43 | 51.35459 | 4.32647 | 14866 ft | 343 kts | 207° |
| 2026-04-26 07:44 | 51.33305 | 4.31039 | 14427 ft | 342 kts | 207° |
| 2026-04-26 07:44 | 51.31179 | 4.29450 | 13995 ft | 341 kts | 207° |
| 2026-04-26 07:44 | 51.29034 | 4.27839 | 13554 ft | 339 kts | 207° |
| 2026-04-26 07:44 | 51.26928 | 4.26249 | 13119 ft | 337 kts | 207° |
| 2026-04-26 07:45 | 51.24839 | 4.24668 | 12689 ft | 336 kts | 207° |
| 2026-04-26 07:45 | 51.22734 | 4.23078 | 12256 ft | 334 kts | 207° |
| 2026-04-26 07:45 | 51.20645 | 4.21498 | 11822 ft | 332 kts | 207° |
| 2026-04-26 07:45 | 51.18596 | 4.19948 | 11403 ft | 329 kts | 207° |
| 2026-04-26 07:46 | 51.16543 | 4.18396 | 10992 ft | 327 kts | 207° |
| 2026-04-26 07:46 | 51.14533 | 4.16814 | 10597 ft | 323 kts | 208° |
| 2026-04-26 07:46 | 51.12554 | 4.15209 | 10427 ft | 311 kts | 209° |
| 2026-04-26 07:46 | 51.10696 | 4.13701 | 10370 ft | 297 kts | 209° |
| 2026-04-26 07:47 | 51.08899 | 4.12246 | 10165 ft | 289 kts | 209° |
| 2026-04-26 07:47 | 51.07097 | 4.10787 | 9788 ft | 288 kts | 208° |
| 2026-04-26 07:47 | 51.05330 | 4.09363 | 9437 ft | 287 kts | 208° |
| 2026-04-26 07:47 | 51.03564 | 4.07941 | 9095 ft | 285 kts | 208° |
| 2026-04-26 07:48 | 51.01799 | 4.06523 | 8759 ft | 283 kts | 208° |
| 2026-04-26 07:48 | 51.00082 | 4.05148 | 8638 ft | 272 kts | 208° |
| 2026-04-26 07:48 | 50.98445 | 4.03840 | 8619 ft | 257 kts | 208° |
| 2026-04-26 07:48 | 50.96855 | 4.02681 | 8539 ft | 247 kts | 196° |
| 2026-04-26 07:49 | 50.95178 | 4.02707 | 8248 ft | 247 kts | 162° |
| 2026-04-26 07:49 | 50.93622 | 4.03755 | 8039 ft | 242 kts | 153° |
| 2026-04-26 07:49 | 50.92133 | 4.04940 | 7701 ft | 239 kts | 153° |
| 2026-04-26 07:50 | 50.89119 | 4.07150 | 6799 ft | 240 kts | 156° |
| 2026-04-26 07:50 | 50.87607 | 4.08167 | 6360 ft | 240 kts | 157° |
| 2026-04-26 07:50 | 50.86086 | 4.09167 | 5909 ft | 240 kts | 157° |
| 2026-04-26 07:50 | 50.84563 | 4.10155 | 5509 ft | 239 kts | 156° |
| 2026-04-26 07:51 | 50.83031 | 4.11149 | 5291 ft | 235 kts | 155° |
| 2026-04-26 07:51 | 50.81726 | 4.12578 | 5025 ft | 227 kts | 123° |
| 2026-04-26 07:51 | 50.81205 | 4.14802 | 4674 ft | 215 kts | 87° |
| 2026-04-26 07:51 | 50.81486 | 4.16931 | 4380 ft | 204 kts | 64° |
| 2026-04-26 07:52 | 50.82095 | 4.18980 | 4084 ft | 197 kts | 61° |
| 2026-04-26 07:52 | 50.82692 | 4.20901 | 3796 ft | 191 kts | 62° |